• Join FlightAware (Why Join?)
  • Login
  • US Flag 
Gobble Gobble! 
12:41PM EST


 

Airport Tracker/Info


-or-


 

Live Flight TrackerFlight Track Log ✈ FLG4262 ✈ 07-Apr-2014 ✈ KDTW - KBGM

Flight Track Log - Related Links

Times and Time Zones

All times are in EDT time to prevent confusion due to time zone crossing. See the FLG4262 flight status page for this flight to view local times or setup timezone preferences in your user account.

Time Position Orientation Groundspeed Altitude Reporting Facility
EDT Latitude Longitude Course Direction KTS MPH feet Rate Location/Type
03:57PM 42.2294 -83.3367 33° Northeast 150 173 1,300  Level Cleveland Center
03:57PM 42.2519 -83.3172 33° Northeast 175 201 2,500 1,920 Climbing Cleveland Center
03:58PM 42.3003 -83.2872 25° Northeast 225 259 4,300 2,100 Climbing Cleveland Center
03:59PM 42.3247 -83.2714 26° Northeast 222 255 5,400 2,820 Climbing Cleveland Center
04:00PM 42.3736 -83.2325 30° Northeast 260 299 7,800 2,940 Climbing Cleveland Center
04:00PM 42.3819 -83.2114 62° Northeast 265 305 8,500 1,740 Climbing Cleveland Center
04:01PM 42.3833 -83.1017 89° East 275 316 10,100 720 Climbing Cleveland Center
04:02PM 42.3869 -82.9769 88° East 328 377 10,000 720 Descending Cleveland Center
04:03PM 42.3589 -82.8533 107° East 346 398 11,600 1,440 Climbing Cleveland Center
04:04PM 42.3636 -82.7167 87° East 362 417 13,000 1,500 Climbing Cleveland Center
04:05PM 42.3672 -82.5769 88° East 369 425 14,800 1,740 Climbing Cleveland Center
04:06PM 42.3689 -82.4356 89° East 375 432 16,700 1,920 Climbing Cleveland Center
04:07PM 42.3628 -82.2653 93° East 376 433 18,800 1,680 Climbing Cleveland Center
04:08PM 42.3561 -82.1233 94° East 384 442 20,200 1,080 Climbing Cleveland Center
04:09PM 42.3503 -81.9753 93° East 390 449 21,100 660 Climbing Cleveland Center
04:10PM 42.3422 -81.8183 94° East 410 472 21,600 480 Climbing Cleveland Center
04:11PM 42.3347 -81.6536 93° East 427 491 22,100 600 Climbing Cleveland Center
04:12PM 42.3275 -81.4844 93° East 440 506 22,900 960 Climbing Cleveland Center
04:13PM 42.3175 -81.2897 94° East 442 509 24,100 1,020 Climbing Cleveland Center
04:14PM 42.3092 -81.1247 94° East 439 505 25,100 960 Climbing Cleveland Center
04:15PM 42.3011 -80.9606 94° East 437 503 26,100 960 Climbing Cleveland Center
04:17PM 42.2844 -80.6372 96° East 427 491 28,200 900 Climbing Cleveland Center
04:18PM 42.2744 -80.4767 95° East 425 489 29,000 360 Climbing Cleveland Center
04:20PM 42.2658 -80.3083 94° East 441 507 29,000  Level Cleveland Center
04:21PM 42.2286 -80.1447 107° East 450 518 29,000  Level Cleveland Center
04:22PM 42.1781 -79.9467 109° East 462 532 29,000  Level Cleveland Center
04:23PM 42.1831 -79.7633 88° East 489 563 29,000 -540 Level Cleveland Center
04:24PM 42.1869 -79.5850 88° East 486 559 28,000 -1,560 Descending Cleveland Center
04:25PM 42.1906 -79.4086 88° East 475 547 25,800 -2,280 Descending Cleveland Center
04:26PM 42.1942 -79.2425 88° East 447 514 23,300 -2,040 Descending Cleveland Center
04:27PM 42.1975 -79.0844 88° East 425 489 21,700 -1,140 Descending Cleveland Center
04:28PM 42.2006 -78.9022 89° East 411 473 21,000 -360 Descending Cleveland Center
04:29PM 42.2028 -78.7594 89° East 411 473 21,000  Level Cleveland Center
04:30PM 42.2050 -78.6122 89° East 401 461 21,000  Level Cleveland Center
04:31PM 42.2069 -78.4397 89° East 390 449 21,000  Level Cleveland Center
04:32PM 42.2083 -78.2950 89° East 390 449 21,000  Level Cleveland Center
04:33PM 42.2100 -78.1467 89° East 392 451 21,000  Level Cleveland Center
04:34PM 42.2111 -77.9953 89° East 403 464 21,000 -660 Level Cleveland Center
04:35PM 42.2122 -77.8439 89° East 404 465 19,700 -1,260 Descending Cleveland Center
04:36PM 42.2128 -77.6656 90° East 404 465 18,400 -1,140 Descending Cleveland Center
04:37PM 42.2139 -77.5144 89° East 404 465 17,400 -1,260 Descending Cleveland Center
04:38PM 42.2133 -77.3650 90° East 405 466 15,900 -1,620 Descending Cleveland Center
04:39PM 42.2144 -77.2244 89° East 383 441 14,100 -1,980 Descending Cleveland Center
04:41PM 42.2139 -77.0033 90° East 368 423 10,900 -2,160 Descending New York Center
04:41PM 42.2147 -76.9311 89° East 353 406 9,700 -1,260 Descending Cleveland Center
04:42PM 42.2144 -76.8186 90° East 303 349 9,000 -360 Descending Cleveland Center
04:43PM 42.2136 -76.7122 91° East 286 329 9,000  Level Cleveland Center
04:44PM 42.2131 -76.5994 90° East 298 343 9,000  Level Cleveland Center
04:45PM 42.2131 -76.4883 90° East 299 344 9,000 -1,020 Level Cleveland Center
04:46PM 42.2500 -76.3975 61° Northeast 299 344 7,000 -2,220 Descending Cleveland Center
04:47PM 42.3083 -76.3186 45° Northeast 288 331 4,500 -1,680 Descending Cleveland Center
04:48PM 42.3692 -76.2353 45° Northeast 281 323 3,600 -600 Descending Cleveland Center
04:49PM 42.4022 -76.1819 50° Northeast 230 265 3,300 -120 Descending Cleveland Center
04:52PM 42.3608 -76.1192 132° Southeast 100 115 3,300  Level New York Center
04:53PM 42.3228 -76.0881 149° Southeast 133 153 3,300  Level New York Center
04:54PM 42.2867 -76.0544 145° Southeast 152 175 3,300 -300 Level New York Center
04:55PM 42.2550 -76.0211 142° Southeast 158 182 2,700 -660 Descending New York Center
04:56PM 42.2186 -75.9928 150° Southeast 148 170 2,100 -600 Descending New York Center